sensor_id;sensor_type;location;lat;lon;timestamp;temperature;humidity
4295;DHT22;2161;53.634;10.100;2023-04-07T00:01:48;8.00;99.90
4295;DHT22;2161;53.634;10.100;2023-04-07T00:04:13;8.00;99.90
4295;DHT22;2161;53.634;10.100;2023-04-07T00:06:39;7.90;99.90
4295;DHT22;2161;53.634;10.100;2023-04-07T00:09:05;8.00;99.90
4295;DHT22;2161;53.634;10.100;2023-04-07T00:11:31;8.00;99.90
4295;DHT22;2161;53.634;10.100;2023-04-07T00:13:56;8.00;99.90
4295;DHT22;2161;53.634;10.100;2023-04-07T00:16:22;8.10;99.90
4295;DHT22;2161;53.634;10.100;2023-04-07T00:18:48;8.30;99.90
4295;DHT22;2161;53.634;10.100;2023-04-07T00:21:13;7.80;99.90
4295;DHT22;2161;53.634;10.100;2023-04-07T00:23:38;7.70;99.90
4295;DHT22;2161;53.634;10.100;2023-04-07T00:26:04;7.60;99.90
4295;DHT22;2161;53.634;10.100;2023-04-07T00:28:30;7.70;99.90
4295;DHT22;2161;53.634;10.100;2023-04-07T00:30:55;7.70;99.90
4295;DHT22;2161;53.634;10.100;2023-04-07T00:33:21;7.70;99.90
4295;DHT22;2161;53.634;10.100;2023-04-07T00:35:46;7.70;99.90
4295;DHT22;2161;53.634;10.100;2023-04-07T00:38:12;7.60;99.90
4295;DHT22;2161;53.634;10.100;2023-04-07T00:40:37;7.60;99.90
4295;DHT22;2161;53.634;10.100;2023-04-07T00:43:03;7.80;99.90
4295;DHT22;2161;53.634;10.100;2023-04-07T00:45:28;7.90;99.90
4295;DHT22;2161;53.634;10.100;2023-04-07T00:47:56;7.90;99.90
4295;DHT22;2161;53.634;10.100;2023-04-07T00:50:22;8.00;99.90
4295;DHT22;2161;53.634;10.100;2023-04-07T00:52:47;7.90;99.90
4295;DHT22;2161;53.634;10.100;2023-04-07T00:55:13;8.00;99.90
4295;DHT22;2161;53.634;10.100;2023-04-07T00:57:38;7.60;99.90
4295;DHT22;2161;53.634;10.100;2023-04-07T01:00:05;7.70;99.90
4295;DHT22;2161;53.634;10.100;2023-04-07T01:02:47;7.80;99.90
4295;DHT22;2161;53.634;10.100;2023-04-07T01:05:20;8.20;99.90
4295;DHT22;2161;53.634;10.100;2023-04-07T01:07:57;7.90;99.90
4295;DHT22;2161;53.634;10.100;2023-04-07T01:10:51;8.00;99.90
4295;DHT22;2161;53.634;10.100;2023-04-07T01:13:22;7.80;99.90
4295;DHT22;2161;53.634;10.100;2023-04-07T01:15:51;7.80;99.90
4295;DHT22;2161;53.634;10.100;2023-04-07T01:18:23;7.90;99.90
4295;DHT22;2161;53.634;10.100;2023-04-07T01:20:51;7.80;99.90
4295;DHT22;2161;53.634;10.100;2023-04-07T01:23:24;7.90;99.90
4295;DHT22;2161;53.634;10.100;2023-04-07T01:26:03;7.80;99.90
4295;DHT22;2161;53.634;10.100;2023-04-07T01:28:55;7.40;99.90
4295;DHT22;2161;53.634;10.100;2023-04-07T01:31:22;7.40;99.90
4295;DHT22;2161;53.634;10.100;2023-04-07T01:33:50;7.70;99.90
4295;DHT22;2161;53.634;10.100;2023-04-07T01:36:17;7.50;99.90
4295;DHT22;2161;53.634;10.100;2023-04-07T01:38:44;7.50;99.90
4295;DHT22;2161;53.634;10.100;2023-04-07T01:41:10;7.50;99.90
4295;DHT22;2161;53.634;10.100;2023-04-07T01:43:39;7.30;99.90
4295;DHT22;2161;53.634;10.100;2023-04-07T01:46:05;7.40;99.90
4295;DHT22;2161;53.634;10.100;2023-04-07T01:48:32;7.40;99.90
4295;DHT22;2161;53.634;10.100;2023-04-07T01:50:59;7.40;99.90
4295;DHT22;2161;53.634;10.100;2023-04-07T01:53:25;7.30;99.90
4295;DHT22;2161;53.634;10.100;2023-04-07T01:55:52;7.20;99.90
4295;DHT22;2161;53.634;10.100;2023-04-07T01:58:18;7.00;99.90
4295;DHT22;2161;53.634;10.100;2023-04-07T02:00:44;7.20;99.90
4295;DHT22;2161;53.634;10.100;2023-04-07T02:03:17;7.20;99.90
4295;DHT22;2161;53.634;10.100;2023-04-07T02:05:48;7.40;99.90
4295;DHT22;2161;53.634;10.100;2023-04-07T02:08:16;7.30;99.90
4295;DHT22;2161;53.634;10.100;2023-04-07T02:10:42;7.10;99.90
4295;DHT22;2161;53.634;10.100;2023-04-07T02:13:14;7.00;99.90
4295;DHT22;2161;53.634;10.100;2023-04-07T02:15:40;7.10;99.90
4295;DHT22;2161;53.634;10.100;2023-04-07T02:18:06;7.20;99.90
4295;DHT22;2161;53.634;10.100;2023-04-07T02:20:35;7.10;99.90
4295;DHT22;2161;53.634;10.100;2023-04-07T02:23:01;7.20;99.90
4295;DHT22;2161;53.634;10.100;2023-04-07T02:25:31;7.30;99.90
4295;DHT22;2161;53.634;10.100;2023-04-07T02:27:58;6.80;99.90
4295;DHT22;2161;53.634;10.100;2023-04-07T02:30:25;7.00;99.90
4295;DHT22;2161;53.634;10.100;2023-04-07T02:32:51;6.50;99.90
4295;DHT22;2161;53.634;10.100;2023-04-07T02:35:17;6.50;99.90
4295;DHT22;2161;53.634;10.100;2023-04-07T02:37:44;6.40;99.90
4295;DHT22;2161;53.634;10.100;2023-04-07T02:40:10;6.60;99.90
4295;DHT22;2161;53.634;10.100;2023-04-07T02:42:36;6.70;99.90
4295;DHT22;2161;53.634;10.100;2023-04-07T02:45:02;6.80;99.90
4295;DHT22;2161;53.634;10.100;2023-04-07T02:47:28;6.70;99.90
4295;DHT22;2161;53.634;10.100;2023-04-07T02:49:53;6.30;99.90
4295;DHT22;2161;53.634;10.100;2023-04-07T02:52:19;6.80;99.90
4295;DHT22;2161;53.634;10.100;2023-04-07T02:54:45;6.90;99.90
4295;DHT22;2161;53.634;10.100;2023-04-07T02:57:10;7.00;99.90
4295;DHT22;2161;53.634;10.100;2023-04-07T02:59:36;6.90;99.90
4295;DHT22;2161;53.634;10.100;2023-04-07T03:02:01;6.60;99.90
4295;DHT22;2161;53.634;10.100;2023-04-07T03:04:26;6.70;99.90
4295;DHT22;2161;53.634;10.100;2023-04-07T03:06:52;6.40;99.90
4295;DHT22;2161;53.634;10.100;2023-04-07T03:09:18;6.60;99.90
4295;DHT22;2161;53.634;10.100;2023-04-07T03:11:43;6.80;99.90
4295;DHT22;2161;53.634;10.100;2023-04-07T03:14:09;6.70;99.90
4295;DHT22;2161;53.634;10.100;2023-04-07T03:16:34;6.60;99.90
4295;DHT22;2161;53.634;10.100;2023-04-07T03:19:00;6.30;99.90
4295;DHT22;2161;53.634;10.100;2023-04-07T03:21:25;6.40;99.90
4295;DHT22;2161;53.634;10.100;2023-04-07T03:23:53;6.20;99.90
4295;DHT22;2161;53.634;10.100;2023-04-07T03:26:18;6.20;99.90
4295;DHT22;2161;53.634;10.100;2023-04-07T03:28:44;6.30;99.90
4295;DHT22;2161;53.634;10.100;2023-04-07T03:31:09;6.20;99.90
4295;DHT22;2161;53.634;10.100;2023-04-07T03:33:35;6.30;99.90
4295;DHT22;2161;53.634;10.100;2023-04-07T03:36:00;6.60;99.90
4295;DHT22;2161;53.634;10.100;2023-04-07T03:38:26;6.80;99.90
4295;DHT22;2161;53.634;10.100;2023-04-07T03:40:51;6.10;99.90
4295;DHT22;2161;53.634;10.100;2023-04-07T03:43:17;6.00;99.90
4295;DHT22;2161;53.634;10.100;2023-04-07T03:45:42;6.10;99.90
4295;DHT22;2161;53.634;10.100;2023-04-07T03:48:08;6.10;99.90
4295;DHT22;2161;53.634;10.100;2023-04-07T03:50:37;6.60;99.90
4295;DHT22;2161;53.634;10.100;2023-04-07T03:53:02;6.20;99.90
4295;DHT22;2161;53.634;10.100;2023-04-07T03:55:28;6.60;99.90
4295;DHT22;2161;53.634;10.100;2023-04-07T03:57:54;6.80;99.90
4295;DHT22;2161;53.634;10.100;2023-04-07T04:00:20;6.50;99.90
4295;DHT22;2161;53.634;10.100;2023-04-07T04:02:45;6.40;99.90
4295;DHT22;2161;53.634;10.100;2023-04-07T04:05:11;6.30;99.90
4295;DHT22;2161;53.634;10.100;2023-04-07T04:07:36;6.00;99.90
4295;DHT22;2161;53.634;10.100;2023-04-07T04:10:02;6.30;99.90
4295;DHT22;2161;53.634;10.100;2023-04-07T04:12:27;6.50;99.90
4295;DHT22;2161;53.634;10.100;2023-04-07T04:14:53;6.40;99.90
4295;DHT22;2161;53.634;10.100;2023-04-07T04:17:18;6.40;99.90
4295;DHT22;2161;53.634;10.100;2023-04-07T04:19:44;6.50;99.90
4295;DHT22;2161;53.634;10.100;2023-04-07T04:22:10;6.40;99.90
4295;DHT22;2161;53.634;10.100;2023-04-07T04:24:36;6.50;99.90
4295;DHT22;2161;53.634;10.100;2023-04-07T04:27:01;6.70;99.90
4295;DHT22;2161;53.634;10.100;2023-04-07T04:29:27;6.70;99.90
4295;DHT22;2161;53.634;10.100;2023-04-07T04:31:52;6.80;99.90
4295;DHT22;2161;53.634;10.100;2023-04-07T04:34:18;6.70;99.90
4295;DHT22;2161;53.634;10.100;2023-04-07T04:36:43;6.60;99.90
4295;DHT22;2161;53.634;10.100;2023-04-07T04:39:09;6.60;99.90
4295;DHT22;2161;53.634;10.100;2023-04-07T04:41:34;6.70;99.90
4295;DHT22;2161;53.634;10.100;2023-04-07T04:44:00;6.40;99.90
4295;DHT22;2161;53.634;10.100;2023-04-07T04:46:25;6.40;99.90
4295;DHT22;2161;53.634;10.100;2023-04-07T04:48:51;6.50;99.90
4295;DHT22;2161;53.634;10.100;2023-04-07T04:51:18;6.60;99.90
4295;DHT22;2161;53.634;10.100;2023-04-07T04:53:44;6.40;99.90
4295;DHT22;2161;53.634;10.100;2023-04-07T04:56:09;6.20;99.90
4295;DHT22;2161;53.634;10.100;2023-04-07T04:58:36;6.30;99.90
4295;DHT22;2161;53.634;10.100;2023-04-07T05:01:01;6.20;99.90
4295;DHT22;2161;53.634;10.100;2023-04-07T05:03:27;6.50;99.90
4295;DHT22;2161;53.634;10.100;2023-04-07T05:05:53;6.40;99.90
4295;DHT22;2161;53.634;10.100;2023-04-07T05:08:18;6.50;99.90
4295;DHT22;2161;53.634;10.100;2023-04-07T05:10:45;6.60;99.90
4295;DHT22;2161;53.634;10.100;2023-04-07T05:13:11;6.60;99.90
4295;DHT22;2161;53.634;10.100;2023-04-07T05:15:36;6.60;99.90
4295;DHT22;2161;53.634;10.100;2023-04-07T05:18:02;6.60;99.90
4295;DHT22;2161;53.634;10.100;2023-04-07T05:20:27;6.70;99.90
4295;DHT22;2161;53.634;10.100;2023-04-07T05:22:53;6.80;99.90
4295;DHT22;2161;53.634;10.100;2023-04-07T05:25:18;6.90;99.90
4295;DHT22;2161;53.634;10.100;2023-04-07T05:27:44;6.70;99.90
4295;DHT22;2161;53.634;10.100;2023-04-07T05:30:10;6.50;99.90
4295;DHT22;2161;53.634;10.100;2023-04-07T05:32:35;6.40;99.90
4295;DHT22;2161;53.634;10.100;2023-04-07T05:35:01;6.70;99.90
4295;DHT22;2161;53.634;10.100;2023-04-07T05:37:27;6.80;99.90
4295;DHT22;2161;53.634;10.100;2023-04-07T05:39:52;6.80;99.90
4295;DHT22;2161;53.634;10.100;2023-04-07T05:42:17;6.80;99.90
4295;DHT22;2161;53.634;10.100;2023-04-07T05:44:43;6.60;99.90
4295;DHT22;2161;53.634;10.100;2023-04-07T05:47:08;6.50;99.90
4295;DHT22;2161;53.634;10.100;2023-04-07T05:49:35;6.70;99.90
4295;DHT22;2161;53.634;10.100;2023-04-07T05:52:01;6.50;99.90
4295;DHT22;2161;53.634;10.100;2023-04-07T05:54:30;6.70;99.90
4295;DHT22;2161;53.634;10.100;2023-04-07T05:56:56;6.40;99.90
4295;DHT22;2161;53.634;10.100;2023-04-07T05:59:21;6.30;99.90
4295;DHT22;2161;53.634;10.100;2023-04-07T06:01:48;6.10;99.90
4295;DHT22;2161;53.634;10.100;2023-04-07T06:04:13;6.40;99.90
4295;DHT22;2161;53.634;10.100;2023-04-07T06:06:39;6.70;99.90
4295;DHT22;2161;53.634;10.100;2023-04-07T06:09:05;6.60;99.90
4295;DHT22;2161;53.634;10.100;2023-04-07T06:11:30;6.10;99.90
4295;DHT22;2161;53.634;10.100;2023-04-07T06:13:56;6.30;99.90
4295;DHT22;2161;53.634;10.100;2023-04-07T06:16:21;6.40;99.90
4295;DHT22;2161;53.634;10.100;2023-04-07T06:18:47;6.60;99.90
4295;DHT22;2161;53.634;10.100;2023-04-07T06:21:12;6.80;99.90
4295;DHT22;2161;53.634;10.100;2023-04-07T06:23:38;7.00;99.90
4295;DHT22;2161;53.634;10.100;2023-04-07T06:26:03;7.20;99.90
4295;DHT22;2161;53.634;10.100;2023-04-07T06:28:29;7.00;99.90
4295;DHT22;2161;53.634;10.100;2023-04-07T06:30:55;7.00;99.90
4295;DHT22;2161;53.634;10.100;2023-04-07T06:33:20;7.00;99.90
4295;DHT22;2161;53.634;10.100;2023-04-07T06:35:50;6.70;99.90
4295;DHT22;2161;53.634;10.100;2023-04-07T06:38:15;6.90;99.90
4295;DHT22;2161;53.634;10.100;2023-04-07T06:40:41;6.70;99.90
4295;DHT22;2161;53.634;10.100;2023-04-07T06:43:06;6.80;99.90
4295;DHT22;2161;53.634;10.100;2023-04-07T06:45:32;7.10;99.90
4295;DHT22;2161;53.634;10.100;2023-04-07T06:47:57;7.00;99.90
4295;DHT22;2161;53.634;10.100;2023-04-07T06:50:23;7.20;99.90
4295;DHT22;2161;53.634;10.100;2023-04-07T06:52:48;7.50;99.90
4295;DHT22;2161;53.634;10.100;2023-04-07T06:55:14;7.20;99.90
4295;DHT22;2161;53.634;10.100;2023-04-07T06:57:40;7.40;99.90
4295;DHT22;2161;53.634;10.100;2023-04-07T07:00:06;7.20;99.90
4295;DHT22;2161;53.634;10.100;2023-04-07T07:02:32;7.30;99.90
4295;DHT22;2161;53.634;10.100;2023-04-07T07:04:58;7.40;99.90
4295;DHT22;2161;53.634;10.100;2023-04-07T07:07:23;7.50;99.90
4295;DHT22;2161;53.634;10.100;2023-04-07T07:09:50;7.60;99.90
4295;DHT22;2161;53.634;10.100;2023-04-07T07:12:15;7.70;99.90
4295;DHT22;2161;53.634;10.100;2023-04-07T07:14:42;7.80;99.90
4295;DHT22;2161;53.634;10.100;2023-04-07T07:17:08;7.90;99.90
4295;DHT22;2161;53.634;10.100;2023-04-07T07:19:33;7.70;99.90
4295;DHT22;2161;53.634;10.100;2023-04-07T07:22:00;7.70;99.90
4295;DHT22;2161;53.634;10.100;2023-04-07T07:24:28;7.90;99.90
4295;DHT22;2161;53.634;10.100;2023-04-07T07:26:54;8.00;99.90
4295;DHT22;2161;53.634;10.100;2023-04-07T07:29:21;7.80;99.90
4295;DHT22;2161;53.634;10.100;2023-04-07T07:31:46;8.00;99.90
4295;DHT22;2161;53.634;10.100;2023-04-07T07:34:12;7.90;99.90
4295;DHT22;2161;53.634;10.100;2023-04-07T07:36:37;8.00;99.90
4295;DHT22;2161;53.634;10.100;2023-04-07T07:39:03;8.20;99.90
4295;DHT22;2161;53.634;10.100;2023-04-07T07:41:29;8.20;99.90
4295;DHT22;2161;53.634;10.100;2023-04-07T07:43:55;8.20;99.90
4295;DHT22;2161;53.634;10.100;2023-04-07T07:46:20;8.00;99.90
4295;DHT22;2161;53.634;10.100;2023-04-07T07:48:47;7.90;99.90
4295;DHT22;2161;53.634;10.100;2023-04-07T07:51:13;8.20;99.90
4295;DHT22;2161;53.634;10.100;2023-04-07T07:53:38;8.40;99.90
4295;DHT22;2161;53.634;10.100;2023-04-07T07:56:04;8.40;99.90
4295;DHT22;2161;53.634;10.100;2023-04-07T07:58:30;8.50;99.90
4295;DHT22;2161;53.634;10.100;2023-04-07T08:00:55;8.50;99.90
4295;DHT22;2161;53.634;10.100;2023-04-07T08:03:20;8.60;99.90
4295;DHT22;2161;53.634;10.100;2023-04-07T08:05:47;8.60;99.90
4295;DHT22;2161;53.634;10.100;2023-04-07T08:08:13;8.50;99.90
4295;DHT22;2161;53.634;10.100;2023-04-07T08:10:38;8.30;99.90
4295;DHT22;2161;53.634;10.100;2023-04-07T08:13:04;8.40;99.90
4295;DHT22;2161;53.634;10.100;2023-04-07T08:15:29;8.50;99.90
4295;DHT22;2161;53.634;10.100;2023-04-07T08:17:55;8.70;99.90
4295;DHT22;2161;53.634;10.100;2023-04-07T08:20:21;8.90;99.90
4295;DHT22;2161;53.634;10.100;2023-04-07T08:22:47;9.10;99.90
4295;DHT22;2161;53.634;10.100;2023-04-07T08:25:13;9.20;99.90
4295;DHT22;2161;53.634;10.100;2023-04-07T08:27:38;9.30;99.90
4295;DHT22;2161;53.634;10.100;2023-04-07T08:30:05;9.30;99.90
4295;DHT22;2161;53.634;10.100;2023-04-07T08:32:39;9.30;99.90
4295;DHT22;2161;53.634;10.100;2023-04-07T08:35:05;9.50;99.90
4295;DHT22;2161;53.634;10.100;2023-04-07T08:37:32;9.50;99.90
4295;DHT22;2161;53.634;10.100;2023-04-07T08:40:02;9.70;99.90
4295;DHT22;2161;53.634;10.100;2023-04-07T08:42:30;9.70;99.90
4295;DHT22;2161;53.634;10.100;2023-04-07T08:44:57;9.70;99.90
4295;DHT22;2161;53.634;10.100;2023-04-07T08:47:25;9.70;99.90
4295;DHT22;2161;53.634;10.100;2023-04-07T08:49:53;9.80;99.90
4295;DHT22;2161;53.634;10.100;2023-04-07T08:52:26;9.90;99.90
4295;DHT22;2161;53.634;10.100;2023-04-07T08:54:56;10.10;99.90
4295;DHT22;2161;53.634;10.100;2023-04-07T08:57:23;10.20;99.90
4295;DHT22;2161;53.634;10.100;2023-04-07T08:59:48;10.30;99.90
4295;DHT22;2161;53.634;10.100;2023-04-07T09:02:16;10.20;99.90
4295;DHT22;2161;53.634;10.100;2023-04-07T09:04:43;10.20;99.90
4295;DHT22;2161;53.634;10.100;2023-04-07T09:07:08;10.10;99.90
4295;DHT22;2161;53.634;10.100;2023-04-07T09:09:34;10.10;99.90
4295;DHT22;2161;53.634;10.100;2023-04-07T09:12:00;10.30;99.90
4295;DHT22;2161;53.634;10.100;2023-04-07T09:14:26;10.30;99.90
4295;DHT22;2161;53.634;10.100;2023-04-07T09:16:53;10.30;99.90
4295;DHT22;2161;53.634;10.100;2023-04-07T09:19:19;10.30;99.90
4295;DHT22;2161;53.634;10.100;2023-04-07T09:21:49;10.40;99.90
4295;DHT22;2161;53.634;10.100;2023-04-07T09:24:28;10.50;99.90
4295;DHT22;2161;53.634;10.100;2023-04-07T09:27:17;10.60;99.90
4295;DHT22;2161;53.634;10.100;2023-04-07T09:29:46;10.50;99.90
4295;DHT22;2161;53.634;10.100;2023-04-07T09:32:11;10.60;99.90
4295;DHT22;2161;53.634;10.100;2023-04-07T09:34:40;10.70;99.90
4295;DHT22;2161;53.634;10.100;2023-04-07T09:37:06;10.90;99.90
4295;DHT22;2161;53.634;10.100;2023-04-07T09:39:47;11.30;99.90
4295;DHT22;2161;53.634;10.100;2023-04-07T09:42:13;11.40;99.90
4295;DHT22;2161;53.634;10.100;2023-04-07T09:44:39;11.70;99.90
4295;DHT22;2161;53.634;10.100;2023-04-07T09:47:05;12.00;99.90
4295;DHT22;2161;53.634;10.100;2023-04-07T09:49:31;12.40;99.90
4295;DHT22;2161;53.634;10.100;2023-04-07T09:52:01;12.70;99.90
4295;DHT22;2161;53.634;10.100;2023-04-07T09:54:36;13.10;99.90
4295;DHT22;2161;53.634;10.100;2023-04-07T09:57:04;13.00;99.90
4295;DHT22;2161;53.634;10.100;2023-04-07T09:59:31;12.80;99.90
4295;DHT22;2161;53.634;10.100;2023-04-07T10:01:57;12.70;99.90
4295;DHT22;2161;53.634;10.100;2023-04-07T10:04:23;12.20;99.90
4295;DHT22;2161;53.634;10.100;2023-04-07T10:06:49;12.10;99.90
4295;DHT22;2161;53.634;10.100;2023-04-07T10:09:16;11.90;99.90
4295;DHT22;2161;53.634;10.100;2023-04-07T10:11:43;12.30;99.90
4295;DHT22;2161;53.634;10.100;2023-04-07T10:14:09;11.90;99.90
4295;DHT22;2161;53.634;10.100;2023-04-07T10:16:37;12.00;99.90
4295;DHT22;2161;53.634;10.100;2023-04-07T10:19:03;12.00;99.90
4295;DHT22;2161;53.634;10.100;2023-04-07T10:21:31;12.10;99.90
4295;DHT22;2161;53.634;10.100;2023-04-07T10:24:06;12.30;99.90
4295;DHT22;2161;53.634;10.100;2023-04-07T10:26:36;12.90;99.90
4295;DHT22;2161;53.634;10.100;2023-04-07T10:29:08;13.00;99.90
4295;DHT22;2161;53.634;10.100;2023-04-07T10:31:36;12.90;99.90
4295;DHT22;2161;53.634;10.100;2023-04-07T10:34:02;13.10;99.90
4295;DHT22;2161;53.634;10.100;2023-04-07T10:36:27;12.80;99.90
4295;DHT22;2161;53.634;10.100;2023-04-07T10:41:38;12.80;99.90
4295;DHT22;2161;53.634;10.100;2023-04-07T10:44:08;12.90;99.90
4295;DHT22;2161;53.634;10.100;2023-04-07T10:49:10;12.70;99.90
4295;DHT22;2161;53.634;10.100;2023-04-07T10:51:38;12.70;99.90
4295;DHT22;2161;53.634;10.100;2023-04-07T10:54:22;12.90;99.90
4295;DHT22;2161;53.634;10.100;2023-04-07T10:59:32;13.20;99.90
4295;DHT22;2161;53.634;10.100;2023-04-07T11:04:41;13.10;99.90
4295;DHT22;2161;53.634;10.100;2023-04-07T11:07:08;13.30;99.90
4295;DHT22;2161;53.634;10.100;2023-04-07T11:09:33;13.20;99.90
4295;DHT22;2161;53.634;10.100;2023-04-07T11:11:59;13.30;99.90
4295;DHT22;2161;53.634;10.100;2023-04-07T11:14:28;13.40;99.90
4295;DHT22;2161;53.634;10.100;2023-04-07T11:16:54;13.40;99.90
4295;DHT22;2161;53.634;10.100;2023-04-07T11:19:20;13.40;99.90
4295;DHT22;2161;53.634;10.100;2023-04-07T11:21:46;13.10;99.90
4295;DHT22;2161;53.634;10.100;2023-04-07T11:24:33;13.20;99.90
4295;DHT22;2161;53.634;10.100;2023-04-07T11:27:02;13.10;99.90
4295;DHT22;2161;53.634;10.100;2023-04-07T11:29:30;13.40;99.90
4295;DHT22;2161;53.634;10.100;2023-04-07T11:32:01;13.50;99.90
4295;DHT22;2161;53.634;10.100;2023-04-07T11:34:34;13.60;99.90
4295;DHT22;2161;53.634;10.100;2023-04-07T11:37:22;13.70;99.90
4295;DHT22;2161;53.634;10.100;2023-04-07T11:39:56;13.80;99.90
4295;DHT22;2161;53.634;10.100;2023-04-07T11:42:34;13.90;99.90
4295;DHT22;2161;53.634;10.100;2023-04-07T11:45:00;13.80;99.90
4295;DHT22;2161;53.634;10.100;2023-04-07T11:47:37;13.80;99.90
4295;DHT22;2161;53.634;10.100;2023-04-07T11:50:03;13.90;99.90
4295;DHT22;2161;53.634;10.100;2023-04-07T11:52:43;14.00;99.90
4295;DHT22;2161;53.634;10.100;2023-04-07T11:55:16;14.20;99.90
4295;DHT22;2161;53.634;10.100;2023-04-07T11:57:42;14.20;99.90
4295;DHT22;2161;53.634;10.100;2023-04-07T12:00:09;14.40;99.90
4295;DHT22;2161;53.634;10.100;2023-04-07T12:02:36;14.50;99.90
4295;DHT22;2161;53.634;10.100;2023-04-07T12:05:02;14.40;99.90
4295;DHT22;2161;53.634;10.100;2023-04-07T12:07:28;14.50;99.90
4295;DHT22;2161;53.634;10.100;2023-04-07T12:09:54;14.60;99.90
4295;DHT22;2161;53.634;10.100;2023-04-07T12:12:27;14.60;99.90
4295;DHT22;2161;53.634;10.100;2023-04-07T12:14:53;14.50;99.90
4295;DHT22;2161;53.634;10.100;2023-04-07T12:17:21;14.50;99.90
4295;DHT22;2161;53.634;10.100;2023-04-07T12:19:46;14.70;99.90
4295;DHT22;2161;53.634;10.100;2023-04-07T12:22:12;14.70;99.90
4295;DHT22;2161;53.634;10.100;2023-04-07T12:24:37;15.00;99.90
4295;DHT22;2161;53.634;10.100;2023-04-07T12:27:03;15.10;99.90
4295;DHT22;2161;53.634;10.100;2023-04-07T12:29:28;15.20;99.90
4295;DHT22;2161;53.634;10.100;2023-04-07T12:31:54;15.30;99.90
4295;DHT22;2161;53.634;10.100;2023-04-07T12:34:20;15.30;99.90
4295;DHT22;2161;53.634;10.100;2023-04-07T12:36:46;15.30;99.90
4295;DHT22;2161;53.634;10.100;2023-04-07T12:39:12;15.50;99.90
4295;DHT22;2161;53.634;10.100;2023-04-07T12:41:38;15.30;99.90
4295;DHT22;2161;53.634;10.100;2023-04-07T12:44:04;15.40;99.90
4295;DHT22;2161;53.634;10.100;2023-04-07T12:46:30;15.60;99.90
4295;DHT22;2161;53.634;10.100;2023-04-07T12:48:55;15.50;99.90
4295;DHT22;2161;53.634;10.100;2023-04-07T12:51:21;15.60;99.90
4295;DHT22;2161;53.634;10.100;2023-04-07T12:53:47;15.70;99.90
4295;DHT22;2161;53.634;10.100;2023-04-07T12:56:12;15.80;99.90
4295;DHT22;2161;53.634;10.100;2023-04-07T12:58:39;15.80;99.90
4295;DHT22;2161;53.634;10.100;2023-04-07T13:01:05;15.90;99.90
4295;DHT22;2161;53.634;10.100;2023-04-07T13:03:31;15.70;99.90
4295;DHT22;2161;53.634;10.100;2023-04-07T13:05:56;15.90;99.90
4295;DHT22;2161;53.634;10.100;2023-04-07T13:08:28;15.80;99.90
4295;DHT22;2161;53.634;10.100;2023-04-07T13:10:55;15.80;99.90
4295;DHT22;2161;53.634;10.100;2023-04-07T13:13:21;15.90;99.90
4295;DHT22;2161;53.634;10.100;2023-04-07T13:15:46;16.10;99.90
4295;DHT22;2161;53.634;10.100;2023-04-07T13:18:12;16.30;99.90
4295;DHT22;2161;53.634;10.100;2023-04-07T13:20:37;16.20;99.90
4295;DHT22;2161;53.634;10.100;2023-04-07T13:23:03;16.30;99.90
4295;DHT22;2161;53.634;10.100;2023-04-07T13:25:29;16.20;99.90
4295;DHT22;2161;53.634;10.100;2023-04-07T13:27:54;16.30;99.90
4295;DHT22;2161;53.634;10.100;2023-04-07T13:30:20;16.10;99.90
4295;DHT22;2161;53.634;10.100;2023-04-07T13:32:45;16.20;99.90
4295;DHT22;2161;53.634;10.100;2023-04-07T13:35:17;16.30;99.90
4295;DHT22;2161;53.634;10.100;2023-04-07T13:37:43;16.00;99.90
4295;DHT22;2161;53.634;10.100;2023-04-07T13:40:09;16.00;99.90
4295;DHT22;2161;53.634;10.100;2023-04-07T13:42:37;15.30;99.90
4295;DHT22;2161;53.634;10.100;2023-04-07T13:45:03;15.60;99.90
4295;DHT22;2161;53.634;10.100;2023-04-07T13:47:29;15.70;99.90
4295;DHT22;2161;53.634;10.100;2023-04-07T13:50:01;15.70;99.90
4295;DHT22;2161;53.634;10.100;2023-04-07T13:52:27;15.70;99.90
4295;DHT22;2161;53.634;10.100;2023-04-07T13:54:53;15.40;99.90
4295;DHT22;2161;53.634;10.100;2023-04-07T13:57:19;15.40;99.90
4295;DHT22;2161;53.634;10.100;2023-04-07T13:59:49;14.90;99.90
4295;DHT22;2161;53.634;10.100;2023-04-07T14:02:18;14.70;99.90
4295;DHT22;2161;53.634;10.100;2023-04-07T14:04:44;14.50;99.90
4295;DHT22;2161;53.634;10.100;2023-04-07T14:07:09;14.50;99.90
4295;DHT22;2161;53.634;10.100;2023-04-07T14:09:35;14.30;99.90
4295;DHT22;2161;53.634;10.100;2023-04-07T14:12:02;14.50;99.90
4295;DHT22;2161;53.634;10.100;2023-04-07T14:14:27;14.20;99.90
4295;DHT22;2161;53.634;10.100;2023-04-07T14:16:53;13.90;99.90
4295;DHT22;2161;53.634;10.100;2023-04-07T14:19:22;14.20;99.90
4295;DHT22;2161;53.634;10.100;2023-04-07T14:21:48;13.90;99.90
4295;DHT22;2161;53.634;10.100;2023-04-07T14:24:14;13.60;99.90
4295;DHT22;2161;53.634;10.100;2023-04-07T14:26:41;13.60;99.90
4295;DHT22;2161;53.634;10.100;2023-04-07T14:29:07;13.30;99.90
4295;DHT22;2161;53.634;10.100;2023-04-07T14:31:33;13.00;99.90
4295;DHT22;2161;53.634;10.100;2023-04-07T14:33:58;12.60;99.90
4295;DHT22;2161;53.634;10.100;2023-04-07T14:36:24;12.70;99.90
4295;DHT22;2161;53.634;10.100;2023-04-07T14:38:49;12.60;99.90
4295;DHT22;2161;53.634;10.100;2023-04-07T14:41:15;12.20;99.90
4295;DHT22;2161;53.634;10.100;2023-04-07T14:43:41;12.20;99.90
4295;DHT22;2161;53.634;10.100;2023-04-07T14:46:07;12.30;99.90
4295;DHT22;2161;53.634;10.100;2023-04-07T14:48:32;12.60;99.90
4295;DHT22;2161;53.634;10.100;2023-04-07T14:50:58;12.50;99.90
4295;DHT22;2161;53.634;10.100;2023-04-07T14:53:24;12.40;99.90
4295;DHT22;2161;53.634;10.100;2023-04-07T14:55:49;12.40;99.90
4295;DHT22;2161;53.634;10.100;2023-04-07T14:58:15;12.30;99.90
4295;DHT22;2161;53.634;10.100;2023-04-07T15:00:40;12.00;99.90
4295;DHT22;2161;53.634;10.100;2023-04-07T15:03:06;12.00;99.90
4295;DHT22;2161;53.634;10.100;2023-04-07T15:05:32;12.10;99.90
4295;DHT22;2161;53.634;10.100;2023-04-07T15:07:57;11.90;99.90
4295;DHT22;2161;53.634;10.100;2023-04-07T15:10:23;11.80;99.90
4295;DHT22;2161;53.634;10.100;2023-04-07T15:12:48;11.80;99.90
4295;DHT22;2161;53.634;10.100;2023-04-07T15:15:15;11.40;99.90
4295;DHT22;2161;53.634;10.100;2023-04-07T15:17:40;11.80;99.90
4295;DHT22;2161;53.634;10.100;2023-04-07T15:20:06;11.80;99.90
4295;DHT22;2161;53.634;10.100;2023-04-07T15:22:32;11.60;99.90
4295;DHT22;2161;53.634;10.100;2023-04-07T15:24:58;11.80;99.90
4295;DHT22;2161;53.634;10.100;2023-04-07T15:27:24;11.50;99.90
4295;DHT22;2161;53.634;10.100;2023-04-07T15:29:49;11.60;99.90
4295;DHT22;2161;53.634;10.100;2023-04-07T15:32:15;11.60;99.90
4295;DHT22;2161;53.634;10.100;2023-04-07T15:34:40;11.50;99.90
4295;DHT22;2161;53.634;10.100;2023-04-07T15:37:06;11.30;99.90
4295;DHT22;2161;53.634;10.100;2023-04-07T15:39:32;11.10;99.90
4295;DHT22;2161;53.634;10.100;2023-04-07T15:41:58;11.20;99.90
4295;DHT22;2161;53.634;10.100;2023-04-07T15:44:23;11.30;99.90
4295;DHT22;2161;53.634;10.100;2023-04-07T15:46:49;11.20;99.90
4295;DHT22;2161;53.634;10.100;2023-04-07T15:49:15;11.00;99.90
4295;DHT22;2161;53.634;10.100;2023-04-07T15:51:45;10.80;99.90
4295;DHT22;2161;53.634;10.100;2023-04-07T15:54:11;10.50;99.90
4295;DHT22;2161;53.634;10.100;2023-04-07T15:56:36;10.50;99.90
4295;DHT22;2161;53.634;10.100;2023-04-07T15:59:02;10.50;99.90
4295;DHT22;2161;53.634;10.100;2023-04-07T16:01:27;10.70;99.90
4295;DHT22;2161;53.634;10.100;2023-04-07T16:03:53;10.40;99.90